Time;durP1;ratioP1;P1;durP2;ratioP2;P2;SDS_P1;SDS_P2;PMS_P1;PMS_P2;Temp;Humidity;BMP_temperature;BMP_pressure;BME280_temperature;BME280_humidity;BME280_pressure;Samples;Min_cycle;Max_cycle;Signal;HPM_P1;HPM_P2
2022/09/29 00:00:43;;;;;;;2.05;1.80;;;;;;;;;;612755;233;26781;-63
2022/09/29 00:03:12;;;;;;;3.30;2.03;;;;;;;;;;612769;234;26602;-66
2022/09/29 00:05:41;;;;;;;1.80;1.70;;;;;;;;;;612708;234;26627;-65
2022/09/29 00:08:10;;;;;;;1.73;1.60;;;;;;;;;;612136;235;26627;-65
2022/09/29 00:10:39;;;;;;;2.10;1.80;;;;;;;;;;612403;235;26633;-65
2022/09/29 00:13:08;;;;;;;1.62;1.52;;;;;;;;;;612443;234;26599;-65
2022/09/29 00:15:36;;;;;;;2.50;1.73;;;;;;;;;;612464;234;26616;-65
2022/09/29 00:18:05;;;;;;;1.80;1.70;;;;;;;;;;612482;228;27076;-65
2022/09/29 00:20:34;;;;;;;2.10;1.92;;;;;;;;;;612389;234;26633;-65
2022/09/29 00:23:03;;;;;;;1.70;1.60;;;;;;;;;;612506;234;26861;-65
2022/09/29 00:25:32;;;;;;;1.85;1.75;;;;;;;;;;612458;235;26828;-65
2022/09/29 00:28:01;;;;;;;3.53;1.58;;;;;;;;;;612483;234;26555;-65
2022/09/29 00:30:30;;;;;;;1.77;1.67;;;;;;;;;;612413;235;26845;-65
2022/09/29 00:32:59;;;;;;;2.12;1.80;;;;;;;;;;612462;234;26601;-65
2022/09/29 00:35:28;;;;;;;2.12;1.80;;;;;;;;;;612443;235;26605;-65
2022/09/29 00:37:58;;;;;;;2.50;1.73;;;;;;;;;;612473;235;26613;-65
2022/09/29 00:40:26;;;;;;;1.65;1.40;;;;;;;;;;612420;235;26866;-65
2022/09/29 00:42:55;;;;;;;2.80;1.73;;;;;;;;;;613947;232;26603;-65
2022/09/29 00:45:24;;;;;;;1.67;1.58;;;;;;;;;;613668;234;26805;-65
2022/09/29 00:48:05;;;;;;;1.70;1.60;;;;;;;;;;613354;234;26550;-65
2022/09/29 00:50:50;;;;;;;1.92;1.80;;;;;;;;;;613266;234;26575;-65
2022/09/29 00:53:19;;;;;;;2.00;1.90;;;;;;;;;;613027;233;26627;-65
2022/09/29 00:55:50;;;;;;;2.55;1.90;;;;;;;;;;613066;233;27319;-65
2022/09/29 00:58:34;;;;;;;2.12;1.75;;;;;;;;;;612921;235;26847;-64
2022/09/29 01:01:03;;;;;;;2.17;1.58;;;;;;;;;;609336;233;26571;-65
2022/09/29 01:03:33;;;;;;;2.17;1.62;;;;;;;;;;612748;234;27084;-64
2022/09/29 01:06:02;;;;;;;2.62;1.60;;;;;;;;;;612618;234;26540;-65
2022/09/29 01:08:33;;;;;;;1.45;1.35;;;;;;;;;;612579;234;26813;-65
2022/09/29 01:11:02;;;;;;;1.65;1.55;;;;;;;;;;612544;234;26549;-65
2022/09/29 01:13:31;;;;;;;1.85;1.70;;;;;;;;;;612765;233;26626;-65
2022/09/29 01:16:00;;;;;;;2.08;1.65;;;;;;;;;;612602;234;26572;-65
2022/09/29 01:18:29;;;;;;;1.65;1.50;;;;;;;;;;612516;233;26790;-65
2022/09/29 01:20:57;;;;;;;1.67;1.58;;;;;;;;;;612449;234;26624;-64
2022/09/29 01:23:36;;;;;;;1.40;1.40;;;;;;;;;;611986;235;26855;-65
2022/09/29 01:26:11;;;;;;;1.30;1.20;;;;;;;;;;612082;235;26634;-65
2022/09/29 01:28:43;;;;;;;1.42;1.33;;;;;;;;;;612492;234;26579;-65
2022/09/29 01:31:14;;;;;;;1.75;1.52;;;;;;;;;;611851;235;26604;-65
2022/09/29 01:33:43;;;;;;;1.70;1.60;;;;;;;;;;612252;235;26875;-65
2022/09/29 01:36:12;;;;;;;1.77;1.55;;;;;;;;;;612227;234;26628;-65
2022/09/29 01:38:45;;;;;;;1.85;1.40;;;;;;;;;;612017;235;26634;-65
2022/09/29 01:41:33;;;;;;;1.62;1.52;;;;;;;;;;612185;235;26824;-64
2022/09/29 01:44:02;;;;;;;1.80;1.70;;;;;;;;;;609129;234;26644;-64
2022/09/29 01:46:31;;;;;;;1.62;1.50;;;;;;;;;;612293;235;26834;-65
2022/09/29 01:49:00;;;;;;;1.92;1.55;;;;;;;;;;612427;235;26646;-65
2022/09/29 01:51:29;;;;;;;1.70;1.60;;;;;;;;;;612472;235;26826;-65
2022/09/29 01:53:58;;;;;;;1.42;1.33;;;;;;;;;;613143;232;26626;-65
2022/09/29 01:56:26;;;;;;;1.60;1.50;;;;;;;;;;613877;233;26595;-65
2022/09/29 01:58:56;;;;;;;1.50;1.40;;;;;;;;;;613539;233;26594;-65
2022/09/29 02:01:25;;;;;;;1.45;1.35;;;;;;;;;;613611;234;26532;-65
2022/09/29 02:03:57;;;;;;;1.70;1.45;;;;;;;;;;613195;234;26597;-65
2022/09/29 02:06:27;;;;;;;1.67;1.58;;;;;;;;;;612847;234;26641;-65
2022/09/29 02:08:55;;;;;;;1.70;1.60;;;;;;;;;;612866;234;26629;-64
2022/09/29 02:11:25;;;;;;;1.52;1.42;;;;;;;;;;612933;233;26803;-64
2022/09/29 02:13:56;;;;;;;1.30;1.20;;;;;;;;;;612795;233;26583;-64
2022/09/29 02:16:25;;;;;;;3.20;1.60;;;;;;;;;;612520;234;26566;-65
2022/09/29 02:18:54;;;;;;;1.30;1.20;;;;;;;;;;612568;234;26577;-65
2022/09/29 02:21:23;;;;;;;1.60;1.50;;;;;;;;;;612661;234;26802;-65
2022/09/29 02:23:52;;;;;;;1.40;1.30;;;;;;;;;;612801;233;26590;-65
2022/09/29 02:26:21;;;;;;;1.37;1.27;;;;;;;;;;612823;233;26789;-65
2022/09/29 02:28:51;;;;;;;2.35;1.98;;;;;;;;;;612748;233;26563;-65
2022/09/29 02:31:18;;;;;;;1.60;1.50;;;;;;;;;;612396;235;26622;-64
2022/09/29 02:33:47;;;;;;;1.45;1.40;;;;;;;;;;612425;235;26612;-65
2022/09/29 02:36:18;;;;;;;1.58;1.48;;;;;;;;;;612474;234;26567;-65
2022/09/29 02:38:50;;;;;;;2.50;1.50;;;;;;;;;;612030;235;26606;-65
2022/09/29 02:41:21;;;;;;;1.77;1.25;;;;;;;;;;612341;235;26850;-64
2022/09/29 02:43:50;;;;;;;1.85;1.50;;;;;;;;;;612004;235;26633;-64
2022/09/29 02:46:23;;;;;;;1.40;1.30;;;;;;;;;;611788;235;26632;-63
2022/09/29 02:48:57;;;;;;;1.30;1.20;;;;;;;;;;611872;235;26629;-64
2022/09/29 02:51:26;;;;;;;1.98;1.65;;;;;;;;;;612011;235;26825;-64
2022/09/29 02:54:02;;;;;;;1.65;1.55;;;;;;;;;;612395;234;26653;-64
2022/09/29 02:56:46;;;;;;;2.22;1.48;;;;;;;;;;612490;234;26535;-64
2022/09/29 02:59:15;;;;;;;1.42;1.33;;;;;;;;;;612231;235;27266;-64
2022/09/29 03:01:47;;;;;;;1.33;1.33;;;;;;;;;;612185;235;26623;-64
2022/09/29 03:04:16;;;;;;;1.67;1.60;;;;;;;;;;612929;232;26615;-64
2022/09/29 03:06:45;;;;;;;1.25;1.23;;;;;;;;;;614407;234;26520;-64
2022/09/29 03:09:14;;;;;;;2.22;1.37;;;;;;;;;;613955;233;26526;-64
2022/09/29 03:11:43;;;;;;;2.78;1.50;;;;;;;;;;613747;233;26534;-64
2022/09/29 03:14:12;;;;;;;1.67;1.50;;;;;;;;;;613589;228;26554;-64
2022/09/29 03:16:41;;;;;;;1.35;1.30;;;;;;;;;;613455;233;26590;-64
2022/09/29 03:19:10;;;;;;;2.45;1.40;;;;;;;;;;613375;234;26575;-64
2022/09/29 03:21:38;;;;;;;1.70;1.60;;;;;;;;;;613337;234;26812;-64
2022/09/29 03:24:07;;;;;;;1.60;1.50;;;;;;;;;;612908;234;26593;-64
2022/09/29 03:26:36;;;;;;;1.73;1.40;;;;;;;;;;612823;234;26851;-63
2022/09/29 03:29:05;;;;;;;2.47;1.50;;;;;;;;;;612700;234;26555;-64
2022/09/29 03:31:33;;;;;;;1.60;1.50;;;;;;;;;;612776;233;26806;-64
2022/09/29 03:34:02;;;;;;;1.50;1.40;;;;;;;;;;612758;234;26595;-65
2022/09/29 03:36:31;;;;;;;1.37;1.27;;;;;;;;;;612748;234;26583;-65
2022/09/29 03:39:01;;;;;;;1.20;1.20;;;;;;;;;;612767;233;26584;-64
2022/09/29 03:41:30;;;;;;;1.10;1.10;;;;;;;;;;612584;234;26573;-65
2022/09/29 03:43:59;;;;;;;1.17;1.17;;;;;;;;;;612504;235;26586;-65
2022/09/29 03:46:28;;;;;;;1.50;1.40;;;;;;;;;;612384;235;26854;-65
2022/09/29 03:48:57;;;;;;;1.60;1.50;;;;;;;;;;612449;235;26605;-65
2022/09/29 03:51:26;;;;;;;1.23;1.20;;;;;;;;;;612431;235;26550;-65
2022/09/29 03:53:55;;;;;;;1.40;1.30;;;;;;;;;;612432;235;26617;-65
2022/09/29 03:56:23;;;;;;;1.83;1.40;;;;;;;;;;612461;235;26528;-65
2022/09/29 03:58:52;;;;;;;1.50;1.40;;;;;;;;;;612463;234;27062;-66
2022/09/29 04:01:21;;;;;;;1.42;1.30;;;;;;;;;;612489;234;26636;-66
2022/09/29 04:03:50;;;;;;;1.30;1.25;;;;;;;;;;612518;235;26810;-66
2022/09/29 04:06:19;;;;;;;1.40;1.40;;;;;;;;;;612563;234;26612;-66
2022/09/29 04:08:48;;;;;;;1.40;1.30;;;;;;;;;;612504;235;26584;-65
2022/09/29 04:11:16;;;;;;;2.08;1.58;;;;;;;;;;612450;234;26554;-65
2022/09/29 04:13:46;;;;;;;1.40;1.30;;;;;;;;;;612429;234;26642;-65
2022/09/29 04:16:14;;;;;;;1.70;1.37;;;;;;;;;;612981;232;26619;-65
2022/09/29 04:18:43;;;;;;;1.30;1.30;;;;;;;;;;613903;234;26610;-66
2022/09/29 04:21:12;;;;;;;1.30;1.30;;;;;;;;;;613464;233;26812;-65
2022/09/29 04:23:41;;;;;;;1.50;1.40;;;;;;;;;;613401;233;26574;-66
2022/09/29 04:26:10;;;;;;;1.17;1.17;;;;;;;;;;613156;228;26799;-65
2022/09/29 04:28:38;;;;;;;1.52;1.42;;;;;;;;;;613041;228;26615;-65
2022/09/29 04:31:07;;;;;;;1.60;1.50;;;;;;;;;;613039;234;26603;-65
2022/09/29 04:33:38;;;;;;;1.30;1.20;;;;;;;;;;613078;233;26634;-65
2022/09/29 04:36:05;;;;;;;1.65;1.30;;;;;;;;;;612593;234;26569;-66
2022/09/29 04:38:34;;;;;;;1.20;1.20;;;;;;;;;;612656;233;26567;-65
2022/09/29 04:41:03;;;;;;;2.55;1.27;;;;;;;;;;612752;233;27291;-63
2022/09/29 04:43:32;;;;;;;1.40;1.40;;;;;;;;;;612697;233;26580;-63
2022/09/29 04:46:00;;;;;;;1.17;1.17;;;;;;;;;;612688;233;27213;-63
2022/09/29 04:48:29;;;;;;;1.83;1.30;;;;;;;;;;612604;234;26580;-63
2022/09/29 04:50:58;;;;;;;1.17;1.12;;;;;;;;;;612549;234;26832;-63
2022/09/29 04:53:27;;;;;;;5.00;1.40;;;;;;;;;;612453;233;26637;-63
2022/09/29 04:55:56;;;;;;;1.75;1.35;;;;;;;;;;612326;234;26617;-63
2022/09/29 04:58:25;;;;;;;1.35;1.25;;;;;;;;;;612337;235;26889;-63
2022/09/29 05:00:53;;;;;;;2.00;1.30;;;;;;;;;;612338;235;26621;-63
2022/09/29 05:03:24;;;;;;;1.95;1.30;;;;;;;;;;612480;235;26827;-64
2022/09/29 05:05:51;;;;;;;1.65;1.27;;;;;;;;;;612318;235;26629;-62
2022/09/29 05:08:20;;;;;;;1.67;1.58;;;;;;;;;;612336;235;26837;-62
2022/09/29 05:10:50;;;;;;;1.30;1.20;;;;;;;;;;612444;235;26560;-62
2022/09/29 05:13:18;;;;;;;1.33;1.23;;;;;;;;;;612403;235;26645;-63
2022/09/29 05:15:47;;;;;;;1.45;1.35;;;;;;;;;;612520;235;26567;-63
2022/09/29 05:18:15;;;;;;;1.50;1.40;;;;;;;;;;612414;233;26621;-63
2022/09/29 05:20:44;;;;;;;1.10;1.00;;;;;;;;;;612408;235;26907;-63
2022/09/29 05:23:13;;;;;;;1.25;1.25;;;;;;;;;;612477;235;26636;-63
2022/09/29 05:25:42;;;;;;;1.40;1.30;;;;;;;;;;612460;235;26840;-63
2022/09/29 05:28:11;;;;;;;1.12;1.12;;;;;;;;;;613259;232;26640;-63
2022/09/29 05:30:40;;;;;;;1.33;1.23;;;;;;;;;;613751;234;26830;-63
2022/09/29 05:33:08;;;;;;;1.55;1.27;;;;;;;;;;613418;233;26580;-63
2022/09/29 05:35:37;;;;;;;1.40;1.30;;;;;;;;;;613321;227;26576;-63
2022/09/29 05:38:06;;;;;;;1.30;1.30;;;;;;;;;;613146;233;26623;-63
2022/09/29 05:40:36;;;;;;;1.08;1.05;;;;;;;;;;613610;231;26608;-63
2022/09/29 05:43:04;;;;;;;4.37;1.48;;;;;;;;;;616717;230;26884;-63
2022/09/29 05:45:33;;;;;;;5.05;1.40;;;;;;;;;;614423;231;26621;-63
2022/09/29 05:48:02;;;;;;;5.97;1.60;;;;;;;;;;617069;231;26797;-63
2022/09/29 05:50:31;;;;;;;3.58;1.42;;;;;;;;;;617234;230;26585;-63
2022/09/29 05:53:01;;;;;;;3.25;1.20;;;;;;;;;;615159;231;26781;-63
2022/09/29 05:55:30;;;;;;;4.55;1.60;;;;;;;;;;617430;229;26612;-63
2022/09/29 05:57:59;;;;;;;2.97;1.52;;;;;;;;;;616771;230;26573;-63
2022/09/29 06:00:30;;;;;;;13.20;8.68;;;;;;;;;;616477;230;26560;-63
2022/09/29 06:02:57;;;;;;;16.73;11.30;;;;;;;;;;615933;231;26579;-63
2022/09/29 06:05:26;;;;;;;18.10;11.25;;;;;;;;;;618181;231;26623;-62
2022/09/29 06:07:55;;;;;;;14.50;9.88;;;;;;;;;;615867;229;26544;-64
2022/09/29 06:10:24;;;;;;;12.32;9.23;;;;;;;;;;614839;231;27393;-63
2022/09/29 06:12:53;;;;;;;13.75;7.80;;;;;;;;;;617307;231;26575;-63
2022/09/29 06:15:21;;;;;;;12.93;8.07;;;;;;;;;;615280;231;26583;-63
2022/09/29 06:17:56;;;;;;;12.68;7.30;;;;;;;;;;617369;231;26566;-63
2022/09/29 06:20:25;;;;;;;12.02;7.32;;;;;;;;;;618957;227;26597;-65
2022/09/29 06:22:54;;;;;;;12.60;7.45;;;;;;;;;;612637;234;26563;-62
2022/09/29 06:25:22;;;;;;;11.95;6.93;;;;;;;;;;613377;234;26832;-63
2022/09/29 06:27:51;;;;;;;10.85;6.90;;;;;;;;;;614366;234;26595;-62
2022/09/29 06:30:20;;;;;;;9.63;6.55;;;;;;;;;;614386;234;26877;-63
2022/09/29 06:32:49;;;;;;;11.60;6.80;;;;;;;;;;613053;234;26575;-63
2022/09/29 06:37:54;;;;;;;9.27;6.72;;;;;;;;;;616075;231;26896;-64
2022/09/29 06:40:22;;;;;;;7.57;5.90;;;;;;;;;;616772;231;26609;-63
2022/09/29 06:42:50;;;;;;;9.88;5.57;;;;;;;;;;616216;233;26970;-63
2022/09/29 06:45:19;;;;;;;7.93;5.35;;;;;;;;;;614009;233;26584;-64
2022/09/29 06:47:48;;;;;;;6.37;5.32;;;;;;;;;;618667;231;26806;-62
2022/09/29 06:50:17;;;;;;;12.68;6.15;;;;;;;;;;616598;231;26611;-63
2022/09/29 06:52:47;;;;;;;8.05;5.47;;;;;;;;;;615513;233;26548;-63
2022/09/29 06:55:14;;;;;;;7.50;5.68;;;;;;;;;;613844;233;26624;-67
2022/09/29 06:57:45;;;;;;;41.10;7.15;;;;;;;;;;618446;231;26573;-67
2022/09/29 07:00:12;;;;;;;20.58;7.07;;;;;;;;;;616794;231;26857;-67
2022/09/29 07:02:41;;;;;;;23.00;6.55;;;;;;;;;;615138;228;26614;-66
2022/09/29 07:05:10;;;;;;;88.75;20.62;;;;;;;;;;619860;231;26554;-67
2022/09/29 07:07:39;;;;;;;1999.90;999.90;;;;;;;;;;613808;233;26583;-68
2022/09/29 07:10:08;;;;;;;1999.90;999.90;;;;;;;;;;614228;233;26577;-67
2022/09/29 07:12:37;;;;;;;1999.90;781.80;;;;;;;;;;615041;233;26623;-66
2022/09/29 07:15:07;;;;;;;77.85;24.30;;;;;;;;;;613228;233;26570;-67
2022/09/29 07:17:35;;;;;;;75.22;23.83;;;;;;;;;;614696;234;26582;-68
2022/09/29 07:20:05;;;;;;;79.87;26.48;;;;;;;;;;615946;231;26781;-67
2022/09/29 07:22:33;;;;;;;65.50;23.87;;;;;;;;;;616121;231;26577;-67
2022/09/29 07:25:02;;;;;;;69.07;23.20;;;;;;;;;;613757;231;26556;-67
2022/09/29 07:27:33;;;;;;;37.63;15.57;;;;;;;;;;614872;231;26641;-68
2022/09/29 07:30:00;;;;;;;27.20;12.80;;;;;;;;;;616959;231;26640;-68
2022/09/29 07:32:29;;;;;;;34.13;13.32;;;;;;;;;;614680;234;26565;-67
2022/09/29 07:34:58;;;;;;;21.80;10.70;;;;;;;;;;613724;231;26812;-67
2022/09/29 07:37:26;;;;;;;22.02;9.73;;;;;;;;;;614592;234;26561;-67
2022/09/29 07:39:55;;;;;;;17.25;8.70;;;;;;;;;;617294;231;26563;-66
2022/09/29 07:42:24;;;;;;;15.63;8.57;;;;;;;;;;615759;231;26626;-67
2022/09/29 07:44:53;;;;;;;17.50;8.35;;;;;;;;;;614961;231;26547;-68
2022/09/29 07:47:22;;;;;;;14.85;8.32;;;;;;;;;;614883;234;26798;-68
2022/09/29 07:49:51;;;;;;;12.05;7.50;;;;;;;;;;614324;234;26572;-68
2022/09/29 07:52:20;;;;;;;13.02;7.70;;;;;;;;;;617200;229;26827;-68
2022/09/29 07:54:49;;;;;;;17.92;7.95;;;;;;;;;;616209;233;26630;-68
2022/09/29 07:57:18;;;;;;;12.13;6.87;;;;;;;;;;620864;231;26581;-68
2022/09/29 07:59:46;;;;;;;11.70;6.97;;;;;;;;;;614394;233;26574;-68
2022/09/29 08:02:16;;;;;;;14.15;7.18;;;;;;;;;;614322;233;26626;-68
2022/09/29 08:04:44;;;;;;;10.10;6.35;;;;;;;;;;613405;233;26880;-68
2022/09/29 08:07:13;;;;;;;8.18;5.78;;;;;;;;;;620177;231;26616;-68
2022/09/29 08:09:42;;;;;;;11.82;6.10;;;;;;;;;;613534;233;26861;-68
2022/09/29 08:12:11;;;;;;;12.55;7.00;;;;;;;;;;614470;233;26564;-68
2022/09/29 08:14:40;;;;;;;8.88;5.82;;;;;;;;;;619999;231;26602;-68
2022/09/29 08:17:08;;;;;;;7.78;5.15;;;;;;;;;;614190;231;26587;-67
2022/09/29 08:19:37;;;;;;;6.70;4.78;;;;;;;;;;618590;231;26590;-68
2022/09/29 08:22:06;;;;;;;6.57;4.37;;;;;;;;;;617021;230;26814;-68
2022/09/29 08:24:36;;;;;;;8.23;4.80;;;;;;;;;;615140;233;26626;-68
2022/09/29 08:27:05;;;;;;;4.55;4.15;;;;;;;;;;613233;233;26580;-68
2022/09/29 08:29:33;;;;;;;6.12;4.85;;;;;;;;;;614670;234;26579;-68
2022/09/29 08:32:02;;;;;;;5.62;4.50;;;;;;;;;;613914;234;26587;-68
2022/09/29 08:34:31;;;;;;;7.37;4.60;;;;;;;;;;613418;234;26831;-68
2022/09/29 08:37:00;;;;;;;7.00;4.90;;;;;;;;;;612878;234;26607;-68
2022/09/29 08:39:30;;;;;;;5.35;4.28;;;;;;;;;;617011;231;26817;-68
2022/09/29 08:41:58;;;;;;;5.00;4.35;;;;;;;;;;617035;231;26616;-68
2022/09/29 08:44:33;;;;;;;5.60;4.62;;;;;;;;;;618498;231;26798;-68
2022/09/29 08:47:08;;;;;;;5.70;4.05;;;;;;;;;;613397;231;26571;-67
2022/09/29 08:49:37;;;;;;;5.60;4.30;;;;;;;;;;617313;231;26605;-69
2022/09/29 08:52:07;;;;;;;7.15;4.00;;;;;;;;;;616502;231;26822;-67
2022/09/29 08:54:36;;;;;;;5.07;3.95;;;;;;;;;;618436;231;26877;-67
2022/09/29 08:57:05;;;;;;;4.47;4.10;;;;;;;;;;622250;231;26561;-68
2022/09/29 08:59:33;;;;;;;7.57;4.40;;;;;;;;;;613336;234;26842;-68
2022/09/29 09:02:02;;;;;;;6.12;4.15;;;;;;;;;;614070;232;26568;-68
2022/09/29 09:04:31;;;;;;;5.20;3.97;;;;;;;;;;618849;231;26675;-67
2022/09/29 09:07:02;;;;;;;4.97;3.80;;;;;;;;;;614158;231;26625;-67
2022/09/29 09:09:34;;;;;;;4.25;3.85;;;;;;;;;;615117;233;26783;-67
2022/09/29 09:12:03;;;;;;;5.50;4.32;;;;;;;;;;614500;233;26810;-68
2022/09/29 09:14:32;;;;;;;7.32;4.35;;;;;;;;;;613293;232;26983;-68
2022/09/29 09:17:12;;;;;;;4.65;4.18;;;;;;;;;;619505;231;26606;-68
2022/09/29 09:19:45;;;;;;;4.07;3.67;;;;;;;;;;613680;233;26640;-68
2022/09/29 09:22:20;;;;;;;4.28;3.85;;;;;;;;;;615781;231;26820;-68
2022/09/29 09:24:48;;;;;;;4.75;4.30;;;;;;;;;;615234;233;27322;-68
2022/09/29 09:27:17;;;;;;;5.32;3.85;;;;;;;;;;621471;230;26565;-69
2022/09/29 09:29:45;;;;;;;4.97;4.03;;;;;;;;;;619410;230;26809;-68
2022/09/29 09:32:15;;;;;;;6.18;4.22;;;;;;;;;;617637;231;26574;-68
2022/09/29 09:34:47;;;;;;;4.25;3.85;;;;;;;;;;614491;231;26607;-69
2022/09/29 09:37:19;;;;;;;4.57;3.70;;;;;;;;;;621587;231;26606;-69
2022/09/29 09:39:48;;;;;;;4.95;3.58;;;;;;;;;;618368;231;26610;-68
2022/09/29 09:42:17;;;;;;;4.28;3.92;;;;;;;;;;614298;234;26529;-68
2022/09/29 09:44:47;;;;;;;12.77;4.28;;;;;;;;;;615300;234;26569;-67
2022/09/29 09:47:23;;;;;;;4.85;4.32;;;;;;;;;;613188;234;26593;-67
2022/09/29 09:49:54;;;;;;;9.75;4.87;;;;;;;;;;618361;231;26538;-67
2022/09/29 09:52:24;;;;;;;6.25;3.85;;;;;;;;;;615900;231;26614;-68
2022/09/29 09:54:53;;;;;;;10.63;4.78;;;;;;;;;;615222;234;26569;-65
2022/09/29 09:57:37;;;;;;;18.35;6.65;;;;;;;;;;613042;234;26637;-68
2022/09/29 10:00:09;;;;;;;16.35;6.45;;;;;;;;;;618024;231;26570;-69
2022/09/29 10:02:40;;;;;;;22.33;5.82;;;;;;;;;;622913;231;26809;-66
2022/09/29 10:05:11;;;;;;;6.90;4.07;;;;;;;;;;613075;231;26852;-66
2022/09/29 10:07:39;;;;;;;9.68;4.43;;;;;;;;;;614469;234;26560;-66
2022/09/29 10:10:15;;;;;;;8.50;4.45;;;;;;;;;;613960;234;26570;-66
2022/09/29 10:12:44;;;;;;;7.00;4.47;;;;;;;;;;612919;234;26571;-66
2022/09/29 10:15:22;;;;;;;7.43;4.60;;;;;;;;;;620352;231;26821;-66
2022/09/29 10:17:52;;;;;;;14.55;6.20;;;;;;;;;;622030;227;26577;-68
2022/09/29 10:20:27;;;;;;;7.60;4.95;;;;;;;;;;621354;231;26538;-68
2022/09/29 10:22:55;;;;;;;7.90;5.47;;;;;;;;;;621811;231;26573;-67
2022/09/29 10:25:24;;;;;;;14.82;6.47;;;;;;;;;;615564;230;26825;-67
2022/09/29 10:27:54;;;;;;;5.57;3.62;;;;;;;;;;616089;233;26592;-67
2022/09/29 10:30:22;;;;;;;4.87;4.00;;;;;;;;;;616037;233;26564;-67
2022/09/29 10:32:51;;;;;;;6.55;4.03;;;;;;;;;;616005;228;26563;-67
2022/09/29 10:35:22;;;;;;;6.75;4.30;;;;;;;;;;615692;233;26626;-67
2022/09/29 10:38:01;;;;;;;8.15;3.47;;;;;;;;;;615766;233;26620;-67
2022/09/29 10:40:30;;;;;;;7.87;5.10;;;;;;;;;;615969;232;26623;-63
2022/09/29 10:42:59;;;;;;;10.15;4.22;;;;;;;;;;615976;233;26915;-63
2022/09/29 10:45:28;;;;;;;4.40;3.72;;;;;;;;;;614527;233;26628;-62
2022/09/29 10:48:11;;;;;;;6.62;3.85;;;;;;;;;;615927;233;26844;-63
2022/09/29 10:50:46;;;;;;;9.70;4.03;;;;;;;;;;615850;233;26583;-62
2022/09/29 10:53:28;;;;;;;5.43;3.53;;;;;;;;;;615623;234;26599;-62
2022/09/29 10:55:57;;;;;;;4.03;3.47;;;;;;;;;;615398;234;26561;-63
2022/09/29 10:58:28;;;;;;;4.32;3.75;;;;;;;;;;615664;233;26537;-62
2022/09/29 11:01:02;;;;;;;5.10;3.85;;;;;;;;;;615507;234;26810;-63
2022/09/29 11:03:31;;;;;;;9.10;4.00;;;;;;;;;;615556;234;26605;-62
2022/09/29 11:06:01;;;;;;;9.63;4.93;;;;;;;;;;615535;234;26568;-62
2022/09/29 11:08:30;;;;;;;7.50;4.32;;;;;;;;;;615526;234;26566;-62
2022/09/29 11:11:04;;;;;;;7.82;4.80;;;;;;;;;;615585;234;26557;-63
2022/09/29 11:13:34;;;;;;;8.02;4.53;;;;;;;;;;615624;234;26584;-63
2022/09/29 11:16:19;;;;;;;6.37;4.37;;;;;;;;;;615680;233;26791;-62
2022/09/29 11:18:48;;;;;;;5.53;4.25;;;;;;;;;;615186;234;26564;-62
2022/09/29 11:21:17;;;;;;;12.75;4.22;;;;;;;;;;615397;234;27000;-62
2022/09/29 11:23:50;;;;;;;10.20;3.95;;;;;;;;;;614630;234;26780;-62
2022/09/29 11:26:19;;;;;;;4.68;3.53;;;;;;;;;;616211;231;26567;-62
2022/09/29 11:28:49;;;;;;;4.40;3.50;;;;;;;;;;616395;233;26609;-62
2022/09/29 11:31:34;;;;;;;4.78;3.67;;;;;;;;;;615927;233;26587;-62
2022/09/29 11:34:09;;;;;;;4.22;3.25;;;;;;;;;;615072;233;26586;-62
2022/09/29 11:36:42;;;;;;;5.35;3.47;;;;;;;;;;616204;233;26563;-62
2022/09/29 11:39:12;;;;;;;4.57;3.50;;;;;;;;;;615810;233;26812;-65
2022/09/29 11:41:51;;;;;;;6.60;3.92;;;;;;;;;;615805;233;27222;-65
2022/09/29 11:44:20;;;;;;;5.03;3.60;;;;;;;;;;615864;233;26623;-64
2022/09/29 11:46:49;;;;;;;6.65;3.75;;;;;;;;;;615527;230;26924;-63
2022/09/29 11:49:22;;;;;;;5.95;3.15;;;;;;;;;;616191;230;26555;-63
2022/09/29 11:51:56;;;;;;;5.37;2.80;;;;;;;;;;614222;231;26549;-63
2022/09/29 11:54:27;;;;;;;3.00;2.75;;;;;;;;;;619823;230;26557;-63
2022/09/29 11:56:58;;;;;;;4.25;3.05;;;;;;;;;;616536;231;26775;-63
2022/09/29 11:59:27;;;;;;;3.45;2.85;;;;;;;;;;617930;231;26540;-63
2022/09/29 12:01:58;;;;;;;3.17;2.80;;;;;;;;;;613007;231;26584;-63
2022/09/29 12:04:27;;;;;;;3.47;2.45;;;;;;;;;;615427;231;26598;-63
2022/09/29 12:06:57;;;;;;;3.12;2.78;;;;;;;;;;615831;231;26795;-63
2022/09/29 12:09:26;;;;;;;2.87;2.67;;;;;;;;;;614300;231;26578;-63
2022/09/29 12:12:04;;;;;;;3.15;2.65;;;;;;;;;;614345;231;26574;-63
2022/09/29 12:14:34;;;;;;;3.72;2.97;;;;;;;;;;616738;228;26640;-63
2022/09/29 12:17:03;;;;;;;4.78;2.35;;;;;;;;;;618042;231;26567;-62
2022/09/29 12:19:32;;;;;;;2.92;2.45;;;;;;;;;;617996;231;26836;-62
2022/09/29 12:22:00;;;;;;;3.25;2.92;;;;;;;;;;622879;231;26566;-62
2022/09/29 12:24:38;;;;;;;3.22;2.60;;;;;;;;;;618302;231;26831;-62
2022/09/29 12:27:07;;;;;;;2.85;2.65;;;;;;;;;;613616;234;26560;-62
2022/09/29 12:29:37;;;;;;;2.35;2.15;;;;;;;;;;613072;231;26884;-63
2022/09/29 12:32:09;;;;;;;3.08;2.87;;;;;;;;;;619234;231;26624;-63
2022/09/29 12:34:39;;;;;;;2.87;2.60;;;;;;;;;;613200;231;26884;-62
2022/09/29 12:37:09;;;;;;;2.62;2.42;;;;;;;;;;616679;228;26770;-62
2022/09/29 12:39:41;;;;;;;3.72;2.50;;;;;;;;;;621663;230;26610;-62
2022/09/29 12:42:26;;;;;;;3.10;2.85;;;;;;;;;;615410;231;26618;-62
2022/09/29 12:44:59;;;;;;;7.80;3.22;;;;;;;;;;607442;234;26870;-60
2022/09/29 12:47:47;;;;;;;2.50;2.40;;;;;;;;;;614294;233;26864;-60
2022/09/29 12:50:22;;;;;;;2.90;2.62;;;;;;;;;;613056;231;26606;-60
2022/09/29 12:52:54;;;;;;;3.47;2.95;;;;;;;;;;619341;231;26630;-60
2022/09/29 12:55:24;;;;;;;2.67;2.47;;;;;;;;;;615877;230;26916;-60
2022/09/29 12:57:51;;;;;;;3.72;2.70;;;;;;;;;;618257;231;26587;-60
2022/09/29 13:00:20;;;;;;;3.17;2.97;;;;;;;;;;618561;227;26834;-60
2022/09/29 13:02:53;;;;;;;3.25;2.50;;;;;;;;;;616058;231;26572;-60
2022/09/29 13:05:28;;;;;;;3.92;2.80;;;;;;;;;;614124;230;26609;-60
2022/09/29 13:08:04;;;;;;;3.05;2.85;;;;;;;;;;615068;231;26576;-60
2022/09/29 13:10:33;;;;;;;3.92;2.92;;;;;;;;;;617630;230;26564;-60
2022/09/29 13:13:03;;;;;;;2.78;2.37;;;;;;;;;;621762;230;26825;-60
2022/09/29 13:15:34;;;;;;;3.33;3.03;;;;;;;;;;613738;231;26623;-60
2022/09/29 13:18:20;;;;;;;5.60;3.17;;;;;;;;;;612559;233;26617;-60
2022/09/29 13:21:04;;;;;;;3.25;2.95;;;;;;;;;;608619;230;26621;-60
2022/09/29 13:23:37;;;;;;;2.92;2.50;;;;;;;;;;617309;230;26584;-61
2022/09/29 13:26:20;;;;;;;4.05;2.70;;;;;;;;;;623001;230;26540;-61
2022/09/29 13:28:49;;;;;;;4.57;2.50;;;;;;;;;;613531;234;26564;-61
2022/09/29 13:31:18;;;;;;;2.83;2.62;;;;;;;;;;613887;228;26580;-60
2022/09/29 13:33:47;;;;;;;3.08;2.87;;;;;;;;;;620209;228;26636;-60
2022/09/29 13:36:22;;;;;;;4.10;3.03;;;;;;;;;;620694;231;26859;-61
2022/09/29 13:38:51;;;;;;;3.03;2.83;;;;;;;;;;614050;234;26557;-61
2022/09/29 13:41:36;;;;;;;2.65;2.45;;;;;;;;;;615285;234;26572;-61
2022/09/29 13:44:03;;;;;;;2.72;2.53;;;;;;;;;;621516;231;26832;-60
2022/09/29 13:46:35;;;;;;;3.20;2.90;;;;;;;;;;617832;231;26622;-60
2022/09/29 13:49:23;;;;;;;2.78;2.58;;;;;;;;;;614749;231;26804;-60
2022/09/29 13:51:51;;;;;;;2.80;2.60;;;;;;;;;;619160;230;26629;-60
2022/09/29 13:54:39;;;;;;;2.33;2.22;;;;;;;;;;618565;231;26797;-61
2022/09/29 13:57:22;;;;;;;3.22;2.92;;;;;;;;;;616103;231;26569;-61
2022/09/29 14:00:07;;;;;;;2.95;2.62;;;;;;;;;;615940;231;26571;-61
2022/09/29 14:02:36;;;;;;;3.20;2.60;;;;;;;;;;618267;231;26623;-61
2022/09/29 14:05:05;;;;;;;2.35;2.25;;;;;;;;;;619676;230;26886;-61
2022/09/29 14:07:40;;;;;;;2.28;2.17;;;;;;;;;;613646;231;26616;-60
2022/09/29 14:10:13;;;;;;;2.60;2.40;;;;;;;;;;618739;230;26564;-61
2022/09/29 14:12:42;;;;;;;3.12;2.90;;;;;;;;;;616167;230;26803;-61
2022/09/29 14:15:11;;;;;;;2.65;2.45;;;;;;;;;;613779;231;26557;-61
2022/09/29 14:17:39;;;;;;;2.47;2.28;;;;;;;;;;616694;230;26559;-61
2022/09/29 14:20:27;;;;;;;2.60;2.45;;;;;;;;;;616512;230;26583;-61
2022/09/29 14:23:05;;;;;;;3.22;2.50;;;;;;;;;;613884;231;26572;-60
2022/09/29 14:25:49;;;;;;;2.62;2.42;;;;;;;;;;616989;231;26564;-61
2022/09/29 14:28:18;;;;;;;9.40;2.75;;;;;;;;;;616754;227;26558;-61
2022/09/29 14:30:50;;;;;;;2.70;2.50;;;;;;;;;;615453;231;26548;-61
2022/09/29 14:33:19;;;;;;;2.05;1.95;;;;;;;;;;614133;231;26578;-61
2022/09/29 14:35:48;;;;;;;2.53;2.30;;;;;;;;;;614147;234;26565;-62
2022/09/29 14:38:17;;;;;;;5.50;2.50;;;;;;;;;;618729;231;26779;-61
2022/09/29 14:40:51;;;;;;;4.18;2.62;;;;;;;;;;621171;231;26609;-60
2022/09/29 14:43:20;;;;;;;5.00;2.15;;;;;;;;;;621286;231;26630;-60
2022/09/29 14:53:42;;;;;;;2.20;2.10;;;;;;;;;;621133;231;26617;-60
2022/09/29 14:56:13;;;;;;;2.33;2.12;;;;;;;;;;620656;231;26570;-60
2022/09/29 14:58:43;;;;;;;3.00;2.12;;;;;;;;;;620633;231;26599;-60
2022/09/29 15:01:23;;;;;;;3.15;2.58;;;;;;;;;;621753;229;26623;-60
2022/09/29 15:03:51;;;;;;;2.55;2.33;;;;;;;;;;622407;231;26651;-61
2022/09/29 15:06:21;;;;;;;9.98;4.22;;;;;;;;;;622188;231;26571;-60
2022/09/29 15:08:55;;;;;;;10.15;4.25;;;;;;;;;;622033;231;26558;-60
2022/09/29 15:11:40;;;;;;;8.75;4.53;;;;;;;;;;621787;231;26629;-60